Time;durP1;ratioP1;P1;durP2;ratioP2;P2;SDS_P1;SDS_P2;PMS_P1;PMS_P2;Temp;Humidity;BMP_temperature;BMP_pressure;BME280_temperature;BME280_humidity;BME280_pressure;Samples;Min_cycle;Max_cycle;Signal;HPM_P1;HPM_P2
2022/11/23 00:00:04;;;;;;;0.40;0.40;;;;;;;;;;6103321;23;20108;-96
2022/11/23 00:02:30;;;;;;;0.30;0.30;;;;;;;;;;6102738;23;20022;-96
2022/11/23 00:04:56;;;;;;;0.20;0.20;;;;;;;;;;6105097;23;20074;-96
2022/11/23 00:07:25;;;;;;;0.30;0.30;;;;;;;;;;6129466;23;20018;-96
2022/11/23 00:09:51;;;;;;;0.30;0.30;;;;;;;;;;6104097;23;20018;-96
2022/11/23 00:12:17;;;;;;;0.10;0.10;;;;;;;;;;6103399;23;20009;-96
2022/11/23 00:14:43;;;;;;;0.20;0.20;;;;;;;;;;6102970;23;20029;-96
2022/11/23 00:17:09;;;;;;;0.30;0.30;;;;;;;;;;6103035;23;20017;-96
2022/11/23 00:19:35;;;;;;;0.20;0.20;;;;;;;;;;6103439;23;20021;-96
2022/11/23 00:22:01;;;;;;;0.40;0.40;;;;;;;;;;6103453;23;20017;-96
2022/11/23 00:24:27;;;;;;;0.30;0.30;;;;;;;;;;6104676;23;20053;-96
2022/11/23 00:26:53;;;;;;;0.30;0.30;;;;;;;;;;6106227;23;20026;-96
2022/11/23 00:29:19;;;;;;;0.22;0.22;;;;;;;;;;6107169;23;20045;-95
2022/11/23 00:31:47;;;;;;;0.30;0.30;;;;;;;;;;6107653;23;20060;-96
2022/11/23 00:34:15;;;;;;;0.30;0.30;;;;;;;;;;6105547;23;20388;-96
2022/11/23 00:36:41;;;;;;;0.25;0.25;;;;;;;;;;6103395;23;20022;-96
2022/11/23 00:39:07;;;;;;;0.40;0.40;;;;;;;;;;6103099;23;20045;-95
2022/11/23 00:41:33;;;;;;;0.40;0.40;;;;;;;;;;6103090;23;20021;-96
2022/11/23 00:43:59;;;;;;;0.30;0.30;;;;;;;;;;6104374;23;20048;-95
2022/11/23 00:46:25;;;;;;;0.30;0.30;;;;;;;;;;6103397;23;20026;-96
2022/11/23 00:48:53;;;;;;;0.40;0.40;;;;;;;;;;6103405;23;20101;-96
2022/11/23 00:51:20;;;;;;;1.25;1.15;;;;;;;;;;6105840;23;20018;-95
2022/11/23 00:53:46;;;;;;;0.30;0.30;;;;;;;;;;6106995;23;20017;-96
2022/11/23 00:56:13;;;;;;;0.30;0.30;;;;;;;;;;6107146;23;20359;-96
2022/11/23 00:58:39;;;;;;;0.40;0.40;;;;;;;;;;6107838;23;20600;-96
2022/11/23 01:01:07;;;;;;;0.40;0.40;;;;;;;;;;6109269;23;20025;-96
2022/11/23 01:03:33;;;;;;;0.40;0.40;;;;;;;;;;6112421;23;20025;-96
2022/11/23 01:06:03;;;;;;;0.30;0.30;;;;;;;;;;6113295;23;20021;-96
2022/11/23 01:08:29;;;;;;;0.30;0.30;;;;;;;;;;6110074;23;20023;-96
2022/11/23 01:11:03;;;;;;;0.40;0.40;;;;;;;;;;6108120;23;20419;-95
2022/11/23 01:13:29;;;;;;;0.60;0.47;;;;;;;;;;6109025;23;20018;-96
2022/11/23 01:15:55;;;;;;;0.40;0.40;;;;;;;;;;6108548;23;20019;-96
2022/11/23 01:18:21;;;;;;;0.20;0.20;;;;;;;;;;6109495;23;20068;-96
2022/11/23 01:20:47;;;;;;;0.30;0.30;;;;;;;;;;6109923;23;20053;-96
2022/11/23 01:23:13;;;;;;;0.40;0.40;;;;;;;;;;6084828;23;20055;-96
2022/11/23 01:25:39;;;;;;;0.30;0.30;;;;;;;;;;6108852;23;20451;-96
2022/11/23 01:28:05;;;;;;;0.20;0.20;;;;;;;;;;6108178;23;20022;-96
2022/11/23 01:30:33;;;;;;;0.30;0.30;;;;;;;;;;6108226;23;20029;-96
2022/11/23 01:32:59;;;;;;;0.20;0.20;;;;;;;;;;6108860;23;20041;-96
2022/11/23 01:35:25;;;;;;;0.30;0.30;;;;;;;;;;6109342;23;20024;-96
2022/11/23 01:37:51;;;;;;;0.30;0.30;;;;;;;;;;6109548;23;20018;-96
2022/11/23 01:40:17;;;;;;;0.30;0.30;;;;;;;;;;6108875;23;20064;-96
2022/11/23 01:42:47;;;;;;;0.30;0.30;;;;;;;;;;6110880;23;20488;-96
2022/11/23 01:45:42;;;;;;;0.30;0.30;;;;;;;;;;6109273;23;20028;-96
2022/11/23 01:48:11;;;;;;;0.10;0.10;;;;;;;;;;6077043;23;20024;-95
2022/11/23 01:50:37;;;;;;;0.30;0.30;;;;;;;;;;6106255;23;20060;-95
2022/11/23 01:53:03;;;;;;;0.30;0.30;;;;;;;;;;6101872;23;20021;-96
2022/11/23 01:55:29;;;;;;;0.30;0.30;;;;;;;;;;6104589;23;20017;-96
2022/11/23 01:57:55;;;;;;;0.40;0.40;;;;;;;;;;6105484;23;20097;-95
2022/11/23 02:00:22;;;;;;;0.30;0.30;;;;;;;;;;6104687;23;20018;-96
2022/11/23 02:02:53;;;;;;;0.40;0.40;;;;;;;;;;6103968;23;20072;-96
2022/11/23 02:05:20;;;;;;;0.30;0.30;;;;;;;;;;6103829;23;20025;-96
2022/11/23 02:07:47;;;;;;;0.40;0.40;;;;;;;;;;6104989;23;20069;-96
2022/11/23 02:10:13;;;;;;;0.30;0.30;;;;;;;;;;6104934;23;20025;-96
2022/11/23 02:12:39;;;;;;;0.32;0.32;;;;;;;;;;6104526;23;20013;-96
2022/11/23 02:15:06;;;;;;;0.40;0.40;;;;;;;;;;6104589;23;20018;-95
2022/11/23 02:17:33;;;;;;;0.30;0.30;;;;;;;;;;6104331;23;20013;-96
2022/11/23 02:20:09;;;;;;;0.20;0.20;;;;;;;;;;6104603;23;20022;-96
2022/11/23 02:22:38;;;;;;;0.45;0.45;;;;;;;;;;6106073;23;20448;-95
2022/11/23 02:25:08;;;;;;;0.30;0.30;;;;;;;;;;6106726;23;20022;-96
2022/11/23 02:27:34;;;;;;;0.30;0.30;;;;;;;;;;6106525;23;20460;-95
2022/11/23 02:30:01;;;;;;;0.30;0.30;;;;;;;;;;6106761;23;20053;-96
2022/11/23 02:32:27;;;;;;;0.35;0.35;;;;;;;;;;6107657;23;20018;-96
2022/11/23 02:34:53;;;;;;;0.40;0.40;;;;;;;;;;6107031;23;20018;-96
2022/11/23 02:37:19;;;;;;;0.40;0.40;;;;;;;;;;6108882;23;20053;-96
2022/11/23 02:39:47;;;;;;;0.30;0.30;;;;;;;;;;6108374;23;20022;-95
2022/11/23 02:42:14;;;;;;;0.30;0.30;;;;;;;;;;6106811;23;20112;-96
2022/11/23 02:44:43;;;;;;;0.20;0.20;;;;;;;;;;6106534;23;20024;-96
2022/11/23 02:47:09;;;;;;;0.25;0.25;;;;;;;;;;6107211;23;20101;-95
2022/11/23 02:49:36;;;;;;;0.30;0.30;;;;;;;;;;6108156;23;20025;-96
2022/11/23 02:52:02;;;;;;;0.30;0.30;;;;;;;;;;6107124;23;20025;-96
2022/11/23 02:54:28;;;;;;;0.30;0.30;;;;;;;;;;6108298;23;20014;-96
2022/11/23 02:56:54;;;;;;;0.30;0.30;;;;;;;;;;6085316;23;20025;-96
2022/11/23 02:59:20;;;;;;;0.40;0.40;;;;;;;;;;6108549;23;20022;-96
2022/11/23 03:01:47;;;;;;;0.38;0.38;;;;;;;;;;6086123;23;20022;-96
2022/11/23 03:04:13;;;;;;;0.30;0.30;;;;;;;;;;6107460;23;20021;-96
2022/11/23 03:06:39;;;;;;;0.20;0.20;;;;;;;;;;6106656;23;20519;-96
2022/11/23 03:09:05;;;;;;;0.30;0.30;;;;;;;;;;6104951;23;20018;-96
2022/11/23 03:11:31;;;;;;;0.30;0.30;;;;;;;;;;6105851;23;20018;-96
2022/11/23 03:14:00;;;;;;;0.13;0.13;;;;;;;;;;6130306;23;20010;-96
2022/11/23 03:16:27;;;;;;;0.30;0.30;;;;;;;;;;6116077;23;20048;-96
2022/11/23 03:18:59;;;;;;;0.30;0.30;;;;;;;;;;6147331;23;20061;-96
2022/11/23 03:21:25;;;;;;;0.40;0.40;;;;;;;;;;6125500;23;20049;-94
2022/11/23 03:23:54;;;;;;;0.30;0.30;;;;;;;;;;6124280;23;20018;-95
2022/11/23 03:26:23;;;;;;;0.25;0.25;;;;;;;;;;6150669;23;20511;-96
2022/11/23 03:28:49;;;;;;;0.30;0.30;;;;;;;;;;6100647;23;20018;-91
2022/11/23 03:31:19;;;;;;;0.30;0.30;;;;;;;;;;6148531;23;20021;-95
2022/11/23 03:33:45;;;;;;;0.30;0.30;;;;;;;;;;6121376;23;20042;-94
2022/11/23 03:36:12;;;;;;;0.40;0.40;;;;;;;;;;6117716;23;20024;-94
2022/11/23 03:38:41;;;;;;;0.30;0.30;;;;;;;;;;6141747;23;20024;-96
2022/11/23 03:41:08;;;;;;;0.40;0.40;;;;;;;;;;6140660;23;20041;-96
2022/11/23 03:43:35;;;;;;;0.30;0.30;;;;;;;;;;6118622;23;20021;-95
2022/11/23 03:46:05;;;;;;;0.30;0.30;;;;;;;;;;6144368;23;20017;-96
2022/11/23 03:48:31;;;;;;;0.30;0.30;;;;;;;;;;6141915;23;20077;-96
2022/11/23 03:50:58;;;;;;;0.25;0.25;;;;;;;;;;6120234;23;20022;-96
2022/11/23 03:53:24;;;;;;;0.28;0.28;;;;;;;;;;6096607;23;20072;-95
2022/11/23 03:55:50;;;;;;;0.30;0.30;;;;;;;;;;6122039;23;20074;-96
2022/11/23 03:58:18;;;;;;;0.20;0.20;;;;;;;;;;6147201;23;20022;-94
2022/11/23 04:00:48;;;;;;;0.35;0.35;;;;;;;;;;6148352;23;20171;-96
2022/11/23 04:03:16;;;;;;;0.30;0.30;;;;;;;;;;6124706;23;20013;-94
2022/11/23 04:05:44;;;;;;;0.30;0.30;;;;;;;;;;6148295;23;20046;-93
2022/11/23 04:08:19;;;;;;;0.40;0.40;;;;;;;;;;6148340;23;20018;-95
2022/11/23 04:10:46;;;;;;;0.25;0.25;;;;;;;;;;6122621;23;20029;-95
2022/11/23 04:13:15;;;;;;;0.30;0.30;;;;;;;;;;6097893;23;20037;-96
2022/11/23 04:15:42;;;;;;;0.40;0.40;;;;;;;;;;6097975;23;20466;-94
2022/11/23 04:18:27;;;;;;;0.30;0.30;;;;;;;;;;6122599;23;20018;-96
2022/11/23 04:21:12;;;;;;;0.35;0.35;;;;;;;;;;6148570;23;20021;-93
2022/11/23 04:23:41;;;;;;;0.20;0.20;;;;;;;;;;6100158;23;20021;-94
2022/11/23 04:26:10;;;;;;;0.40;0.40;;;;;;;;;;6148976;23;20166;-96
2022/11/23 04:28:40;;;;;;;0.30;0.30;;;;;;;;;;6100403;23;20036;-95
2022/11/23 04:31:08;;;;;;;0.30;0.30;;;;;;;;;;6122322;23;20018;-95
2022/11/23 04:33:41;;;;;;;0.30;0.30;;;;;;;;;;6145011;23;20086;-94
2022/11/23 04:36:07;;;;;;;0.28;0.28;;;;;;;;;;6095436;23;20005;-96
2022/11/23 04:38:34;;;;;;;0.30;0.30;;;;;;;;;;6143648;23;20090;-96
2022/11/23 04:41:00;;;;;;;0.30;0.30;;;;;;;;;;6118520;23;20022;-96
2022/11/23 04:43:31;;;;;;;0.30;0.30;;;;;;;;;;6121692;23;20097;-94
2022/11/23 04:46:01;;;;;;;0.30;0.30;;;;;;;;;;6145507;23;20006;-96
2022/11/23 04:48:30;;;;;;;0.30;0.30;;;;;;;;;;6121138;23;20018;-96
2022/11/23 04:51:02;;;;;;;0.32;0.32;;;;;;;;;;6118842;23;20014;-96
2022/11/23 04:53:30;;;;;;;0.30;0.30;;;;;;;;;;6119040;23;20061;-96
2022/11/23 04:55:56;;;;;;;0.35;0.35;;;;;;;;;;6119481;23;20044;-96
2022/11/23 04:58:23;;;;;;;0.30;0.30;;;;;;;;;;6138195;23;20078;-96
2022/11/23 05:00:49;;;;;;;0.20;0.20;;;;;;;;;;6137394;23;20395;-95
2022/11/23 05:03:16;;;;;;;0.70;0.70;;;;;;;;;;6113971;23;20025;-96
2022/11/23 05:05:45;;;;;;;0.30;0.30;;;;;;;;;;6136951;23;20022;-95
2022/11/23 05:08:11;;;;;;;0.40;0.40;;;;;;;;;;6113512;23;20391;-95
2022/11/23 05:10:37;;;;;;;0.30;0.30;;;;;;;;;;6094207;23;20022;-93
2022/11/23 05:13:06;;;;;;;0.30;0.30;;;;;;;;;;6118101;23;20037;-96
2022/11/23 05:15:33;;;;;;;0.50;0.50;;;;;;;;;;6118020;23;20021;-96
2022/11/23 05:18:05;;;;;;;0.43;0.43;;;;;;;;;;6143949;23;20025;-96
2022/11/23 05:20:31;;;;;;;0.40;0.40;;;;;;;;;;6117553;23;20029;-94
2022/11/23 05:22:57;;;;;;;0.30;0.30;;;;;;;;;;6140909;23;20376;-96
2022/11/23 05:25:23;;;;;;;0.20;0.20;;;;;;;;;;6115353;23;20128;-95
2022/11/23 05:27:49;;;;;;;0.30;0.30;;;;;;;;;;6112903;23;20105;-96
2022/11/23 05:30:15;;;;;;;0.30;0.30;;;;;;;;;;6112558;23;20028;-96
2022/11/23 05:32:41;;;;;;;0.30;0.30;;;;;;;;;;6109603;23;20018;-96
2022/11/23 05:35:08;;;;;;;0.20;0.20;;;;;;;;;;6086018;23;20025;-95
2022/11/23 05:37:34;;;;;;;0.30;0.30;;;;;;;;;;6107738;23;20025;-96
2022/11/23 05:40:00;;;;;;;0.20;0.20;;;;;;;;;;6108779;23;20022;-96
2022/11/23 05:42:26;;;;;;;0.40;0.40;;;;;;;;;;6109505;23;20100;-94
2022/11/23 05:44:52;;;;;;;0.30;0.30;;;;;;;;;;6109055;23;20018;-96
2022/11/23 05:47:18;;;;;;;0.40;0.40;;;;;;;;;;6106547;23;20363;-96
2022/11/23 05:49:44;;;;;;;0.38;0.38;;;;;;;;;;6106041;23;20028;-96
2022/11/23 05:52:10;;;;;;;0.35;0.35;;;;;;;;;;6105804;23;20083;-96
2022/11/23 05:54:36;;;;;;;0.20;0.20;;;;;;;;;;6105798;23;20014;-96
2022/11/23 05:57:02;;;;;;;0.30;0.30;;;;;;;;;;6109663;23;20078;-96
2022/11/23 05:59:29;;;;;;;0.63;0.63;;;;;;;;;;6137773;23;20022;-96
2022/11/23 06:01:55;;;;;;;0.20;0.20;;;;;;;;;;6112644;23;20069;-96
2022/11/23 06:04:21;;;;;;;0.20;0.20;;;;;;;;;;6108407;23;20022;-96
2022/11/23 06:06:47;;;;;;;0.20;0.20;;;;;;;;;;6107730;23;20029;-96
2022/11/23 06:09:13;;;;;;;0.20;0.20;;;;;;;;;;6109486;23;20032;-96
2022/11/23 06:11:39;;;;;;;0.25;0.25;;;;;;;;;;6110033;23;20025;-96
2022/11/23 06:14:05;;;;;;;0.25;0.25;;;;;;;;;;6109954;23;20025;-96
2022/11/23 06:16:31;;;;;;;0.40;0.40;;;;;;;;;;6131564;23;20038;-96
2022/11/23 06:18:57;;;;;;;0.40;0.40;;;;;;;;;;6107603;23;20069;-96
2022/11/23 06:21:23;;;;;;;0.28;0.28;;;;;;;;;;6107286;23;20021;-96
2022/11/23 06:23:49;;;;;;;0.40;0.40;;;;;;;;;;6106329;23;20021;-95
2022/11/23 06:26:15;;;;;;;0.40;0.40;;;;;;;;;;6104454;23;20028;-96
2022/11/23 06:28:41;;;;;;;0.30;0.30;;;;;;;;;;6104448;23;20018;-96
2022/11/23 06:31:07;;;;;;;0.30;0.30;;;;;;;;;;6103860;23;20065;-96
2022/11/23 06:33:34;;;;;;;0.30;0.30;;;;;;;;;;6104215;23;20073;-96
2022/11/23 06:36:01;;;;;;;0.30;0.30;;;;;;;;;;6104328;23;20049;-96
2022/11/23 06:38:27;;;;;;;0.40;0.40;;;;;;;;;;6105206;23;20025;-96
2022/11/23 06:40:56;;;;;;;0.40;0.40;;;;;;;;;;6104002;23;20022;-96
2022/11/23 06:43:22;;;;;;;0.20;0.20;;;;;;;;;;6105165;23;20021;-96
2022/11/23 06:45:48;;;;;;;0.22;0.22;;;;;;;;;;6105160;23;20475;-95
2022/11/23 06:48:14;;;;;;;0.30;0.30;;;;;;;;;;6105504;23;20018;-96
2022/11/23 06:50:40;;;;;;;0.25;0.25;;;;;;;;;;6104796;23;20050;-96
2022/11/23 06:53:06;;;;;;;0.50;0.50;;;;;;;;;;6106371;23;20511;-96
2022/11/23 06:55:32;;;;;;;0.30;0.30;;;;;;;;;;6105958;23;20074;-96
2022/11/23 06:57:58;;;;;;;0.30;0.30;;;;;;;;;;6104870;23;20384;-96
2022/11/23 07:00:24;;;;;;;0.20;0.20;;;;;;;;;;6107180;23;20029;-96
2022/11/23 07:02:51;;;;;;;0.25;0.25;;;;;;;;;;6107194;23;20022;-96
2022/11/23 07:05:18;;;;;;;0.30;0.30;;;;;;;;;;6106095;23;20073;-95
2022/11/23 07:07:44;;;;;;;0.30;0.30;;;;;;;;;;6106207;23;20033;-96
2022/11/23 07:10:10;;;;;;;0.30;0.30;;;;;;;;;;6104818;23;20022;-96
2022/11/23 07:12:36;;;;;;;0.30;0.30;;;;;;;;;;6105057;23;20018;-95
2022/11/23 07:15:02;;;;;;;0.40;0.40;;;;;;;;;;6108843;23;20072;-95
2022/11/23 07:17:28;;;;;;;0.40;0.40;;;;;;;;;;6108848;23;20018;-96
2022/11/23 07:19:54;;;;;;;0.35;0.35;;;;;;;;;;6107673;23;20018;-96
2022/11/23 07:22:20;;;;;;;0.40;0.40;;;;;;;;;;6107513;23;20022;-95
2022/11/23 07:24:46;;;;;;;0.40;0.40;;;;;;;;;;6107089;23;20017;-96
2022/11/23 07:27:12;;;;;;;0.50;0.50;;;;;;;;;;6105419;23;20018;-95
2022/11/23 07:29:37;;;;;;;0.45;0.45;;;;;;;;;;6104185;23;20534;-96
2022/11/23 07:32:05;;;;;;;0.40;0.40;;;;;;;;;;6104814;23;20018;-96
2022/11/23 07:34:31;;;;;;;0.40;0.40;;;;;;;;;;6105507;23;20046;-96
2022/11/23 07:36:57;;;;;;;0.30;0.30;;;;;;;;;;6104990;23;20014;-96
2022/11/23 07:39:23;;;;;;;0.30;0.30;;;;;;;;;;6104662;23;20286;-96
2022/11/23 07:41:49;;;;;;;0.32;0.32;;;;;;;;;;6103194;23;20070;-96
2022/11/23 07:44:15;;;;;;;0.30;0.30;;;;;;;;;;6105033;23;20073;-95
2022/11/23 07:46:41;;;;;;;0.30;0.30;;;;;;;;;;6107566;23;20090;-96
2022/11/23 07:49:07;;;;;;;0.22;0.22;;;;;;;;;;6100449;23;20444;-96
2022/11/23 07:51:33;;;;;;;0.40;0.40;;;;;;;;;;6103423;23;20065;-96
2022/11/23 07:54:00;;;;;;;0.40;0.40;;;;;;;;;;6103452;23;20022;-96
2022/11/23 07:56:26;;;;;;;0.30;0.30;;;;;;;;;;6102319;23;20014;-96
2022/11/23 07:58:52;;;;;;;0.30;0.30;;;;;;;;;;6103947;23;20022;-96
2022/11/23 08:01:18;;;;;;;0.30;0.30;;;;;;;;;;6105036;23;20014;-96
2022/11/23 08:03:45;;;;;;;0.30;0.30;;;;;;;;;;6108955;23;20029;-95
2022/11/23 08:06:12;;;;;;;0.40;0.40;;;;;;;;;;6107882;23;20017;-96
2022/11/23 08:08:38;;;;;;;0.40;0.40;;;;;;;;;;6108756;23;20346;-96
2022/11/23 08:11:05;;;;;;;0.40;0.40;;;;;;;;;;6107611;23;20072;-96
2022/11/23 08:13:33;;;;;;;0.43;0.43;;;;;;;;;;6107553;23;20471;-96
2022/11/23 08:15:59;;;;;;;0.30;0.30;;;;;;;;;;6107035;23;20014;-96
2022/11/23 08:18:26;;;;;;;0.28;0.28;;;;;;;;;;6109694;23;20045;-94
2022/11/23 08:20:55;;;;;;;0.22;0.22;;;;;;;;;;6133476;23;20014;-96
2022/11/23 08:23:24;;;;;;;0.30;0.30;;;;;;;;;;6106858;23;20246;-96
2022/11/23 08:28:45;;;;;;;0.40;0.40;;;;;;;;;;6121668;23;20018;-95
2022/11/23 08:31:11;;;;;;;0.40;0.40;;;;;;;;;;6088279;23;20022;-90
2022/11/23 08:33:38;;;;;;;0.50;0.50;;;;;;;;;;6079916;23;20026;-92
2022/11/23 08:36:04;;;;;;;0.22;0.22;;;;;;;;;;6100627;23;20022;-94
2022/11/23 08:38:30;;;;;;;0.20;0.20;;;;;;;;;;6076775;23;20017;-92
2022/11/23 08:41:04;;;;;;;0.30;0.30;;;;;;;;;;6076545;23;20022;-94
2022/11/23 08:43:30;;;;;;;0.32;0.32;;;;;;;;;;6077848;23;20014;-93
2022/11/23 08:46:06;;;;;;;0.30;0.30;;;;;;;;;;6128964;23;20014;-93
2022/11/23 08:48:32;;;;;;;0.40;0.40;;;;;;;;;;6076137;23;20064;-90
2022/11/23 08:50:59;;;;;;;0.30;0.30;;;;;;;;;;6075913;23;20022;-90
2022/11/23 08:53:25;;;;;;;0.20;0.20;;;;;;;;;;6076135;23;20391;-91
2022/11/23 08:55:51;;;;;;;0.30;0.30;;;;;;;;;;6075837;23;20013;-91
2022/11/23 08:58:17;;;;;;;0.40;0.40;;;;;;;;;;6077416;23;20153;-92
2022/11/23 09:00:43;;;;;;;0.30;0.30;;;;;;;;;;6100258;23;20566;-92
2022/11/23 09:03:09;;;;;;;0.40;0.40;;;;;;;;;;6076029;23;20053;-94
2022/11/23 09:05:38;;;;;;;0.30;0.30;;;;;;;;;;6078807;23;20041;-94
2022/11/23 09:08:05;;;;;;;0.38;0.38;;;;;;;;;;6076990;23;20022;-93
2022/11/23 09:10:31;;;;;;;0.30;0.30;;;;;;;;;;6076377;23;20044;-93
2022/11/23 09:12:58;;;;;;;0.30;0.30;;;;;;;;;;6076868;23;20475;-93
2022/11/23 09:15:24;;;;;;;0.30;0.30;;;;;;;;;;6076983;23;20048;-92
2022/11/23 09:17:50;;;;;;;0.30;0.30;;;;;;;;;;6104063;23;20013;-96
2022/11/23 09:23:03;;;;;;;0.22;0.22;;;;;;;;;;6134801;23;20022;-94
2022/11/23 09:25:49;;;;;;;0.22;0.22;;;;;;;;;;6125278;23;20014;-93
2022/11/23 09:28:18;;;;;;;0.28;0.28;;;;;;;;;;6095277;23;20141;-95
2022/11/23 09:30:50;;;;;;;0.30;0.30;;;;;;;;;;6067264;23;20097;-96
2022/11/23 09:33:16;;;;;;;0.40;0.40;;;;;;;;;;6081999;23;20018;-96
2022/11/23 09:38:18;;;;;;;0.40;0.40;;;;;;;;;;6139218;23;20522;-95
2022/11/23 09:41:00;;;;;;;0.17;0.17;;;;;;;;;;6130038;23;20026;-96
2022/11/23 09:43:40;;;;;;;0.30;0.30;;;;;;;;;;6130271;23;20022;-92
2022/11/23 09:46:12;;;;;;;0.30;0.30;;;;;;;;;;6130124;23;20025;-94
2022/11/23 09:49:01;;;;;;;0.20;0.20;;;;;;;;;;6129950;23;20017;-93
2022/11/23 09:51:39;;;;;;;0.30;0.30;;;;;;;;;;6088424;23;20018;-96
2022/11/23 09:54:12;;;;;;;0.30;0.30;;;;;;;;;;6076731;23;20029;-95
2022/11/23 09:56:40;;;;;;;0.30;0.30;;;;;;;;;;6073613;23;20472;-92
2022/11/23 09:59:16;;;;;;;0.38;0.38;;;;;;;;;;6072970;23;20049;-93
2022/11/23 10:01:42;;;;;;;0.20;0.20;;;;;;;;;;6072615;23;20049;-93
2022/11/23 10:04:19;;;;;;;0.40;0.40;;;;;;;;;;6077610;23;20105;-95
2022/11/23 10:06:48;;;;;;;0.30;0.30;;;;;;;;;;6079087;23;20014;-94
2022/11/23 10:09:39;;;;;;;0.30;0.30;;;;;;;;;;6074040;23;20105;-95
2022/11/23 10:12:21;;;;;;;0.10;0.10;;;;;;;;;;6107267;23;20014;-94
2022/11/23 10:15:03;;;;;;;0.20;0.20;;;;;;;;;;6075524;23;20014;-96
2022/11/23 10:17:29;;;;;;;0.20;0.20;;;;;;;;;;6073448;23;20018;-93
2022/11/23 10:20:13;;;;;;;0.30;0.30;;;;;;;;;;6071911;23;20022;-94
2022/11/23 10:22:43;;;;;;;0.40;0.40;;;;;;;;;;6071667;23;20113;-95
2022/11/23 10:25:19;;;;;;;0.30;0.30;;;;;;;;;;6072159;23;20089;-95
2022/11/23 10:27:46;;;;;;;0.17;0.17;;;;;;;;;;6071568;23;20018;-94
2022/11/23 10:30:13;;;;;;;0.30;0.30;;;;;;;;;;6072107;23;20387;-94
2022/11/23 10:32:48;;;;;;;0.30;0.30;;;;;;;;;;6073053;23;20097;-93
2022/11/23 10:35:14;;;;;;;;;;;;;;;;;;6074050;23;20086;-91
2022/11/23 10:37:41;;;;;;;0.38;0.38;;;;;;;;;;6097645;23;20374;-96
2022/11/23 10:40:26;;;;;;;0.30;0.30;;;;;;;;;;6073284;23;20058;-93
2022/11/23 10:42:58;;;;;;;0.20;0.20;;;;;;;;;;6074782;23;20121;-96
2022/11/23 10:45:26;;;;;;;0.40;0.40;;;;;;;;;;6073250;23;20050;-95
2022/11/23 10:47:59;;;;;;;1.30;1.20;;;;;;;;;;6073371;23;20022;-95
2022/11/23 10:50:28;;;;;;;0.38;0.38;;;;;;;;;;6073172;23;20044;-95
2022/11/23 10:53:13;;;;;;;0.30;0.30;;;;;;;;;;6073531;23;20357;-93
2022/11/23 10:55:52;;;;;;;0.30;0.30;;;;;;;;;;6073350;23;20401;-94
2022/11/23 10:58:33;;;;;;;0.20;0.20;;;;;;;;;;6073356;23;20019;-94
2022/11/23 11:01:01;;;;;;;0.22;0.22;;;;;;;;;;6073166;23;20029;-96
2022/11/23 11:03:29;;;;;;;0.30;0.30;;;;;;;;;;6073392;23;20038;-95
2022/11/23 11:05:57;;;;;;;0.22;0.22;;;;;;;;;;6073790;23;20093;-94
2022/11/23 11:08:25;;;;;;;0.20;0.20;;;;;;;;;;6073436;23;20019;-95
2022/11/23 11:11:08;;;;;;;0.30;0.30;;;;;;;;;;6072954;23;20081;-94
2022/11/23 11:13:47;;;;;;;0.22;0.22;;;;;;;;;;6073137;23;20014;-95
2022/11/23 11:16:18;;;;;;;0.20;0.20;;;;;;;;;;6072965;23;20472;-96
2022/11/23 11:18:44;;;;;;;0.30;0.30;;;;;;;;;;6073144;23;20015;-94
2022/11/23 11:21:19;;;;;;;0.30;0.30;;;;;;;;;;6073161;23;20022;-95
2022/11/23 11:23:51;;;;;;;0.30;0.30;;;;;;;;;;6073056;23;20045;-96
2022/11/23 11:26:17;;;;;;;0.30;0.30;;;;;;;;;;6073183;23;20022;-94
2022/11/23 11:28:46;;;;;;;0.28;0.28;;;;;;;;;;6073090;23;20018;-95
2022/11/23 11:31:25;;;;;;;0.32;0.32;;;;;;;;;;6072930;23;20022;-94
2022/11/23 11:34:11;;;;;;;0.40;0.40;;;;;;;;;;6073055;23;20015;-95
2022/11/23 11:36:41;;;;;;;0.35;0.35;;;;;;;;;;6072923;23;20015;-95
2022/11/23 11:39:10;;;;;;;0.20;0.20;;;;;;;;;;6071975;23;20018;-94
2022/11/23 11:41:36;;;;;;;0.30;0.30;;;;;;;;;;6073257;23;20441;-96
2022/11/23 11:44:08;;;;;;;0.30;0.30;;;;;;;;;;6073561;23;20018;-95
2022/11/23 11:46:40;;;;;;;0.20;0.20;;;;;;;;;;6074220;23;20019;-95
2022/11/23 11:49:08;;;;;;;0.30;0.30;;;;;;;;;;6072500;23;20018;-95
2022/11/23 11:51:38;;;;;;;0.30;0.30;;;;;;;;;;6072891;23;20025;-95
2022/11/23 11:54:14;;;;;;;0.20;0.20;;;;;;;;;;6073352;23;20014;-95
2022/11/23 11:56:40;;;;;;;;;;;;;;;;;;6074033;23;20340;-95
2022/11/23 11:59:09;;;;;;;0.30;0.30;;;;;;;;;;6096551;23;19917;-94
2022/11/23 12:01:42;;;;;;;0.20;0.20;;;;;;;;;;6072472;23;20668;-94
2022/11/23 12:04:15;;;;;;;0.40;0.40;;;;;;;;;;6072968;23;20448;-95
2022/11/23 12:07:00;;;;;;;0.15;0.15;;;;;;;;;;6072627;23;20018;-95
2022/11/23 12:09:30;;;;;;;0.30;0.30;;;;;;;;;;6072807;23;20029;-93
2022/11/23 12:11:56;;;;;;;0.35;0.35;;;;;;;;;;6073315;23;20077;-95
2022/11/23 12:14:22;;;;;;;0.30;0.30;;;;;;;;;;6073035;23;20018;-94
2022/11/23 12:17:06;;;;;;;0.28;0.28;;;;;;;;;;6071203;23;20074;-91
2022/11/23 12:19:42;;;;;;;0.20;0.20;;;;;;;;;;6083090;23;20353;-96
2022/11/23 12:22:19;;;;;;;0.30;0.30;;;;;;;;;;6117535;23;20070;-96
2022/11/23 12:25:09;;;;;;;0.27;0.27;;;;;;;;;;6093416;23;20070;-96
2022/11/23 12:27:47;;;;;;;0.30;0.30;;;;;;;;;;6098649;23;20010;-96
2022/11/23 12:30:32;;;;;;;0.20;0.20;;;;;;;;;;6072175;23;20023;-95
2022/11/23 12:33:32;;;;;;;0.20;0.20;;;;;;;;;;6073417;23;20313;-82
2022/11/23 12:35:58;;;;;;;0.95;0.95;;;;;;;;;;6052620;23;20138;-83
2022/11/23 12:38:30;;;;;;;0.20;0.20;;;;;;;;;;6070459;23;20018;-83
2022/11/23 12:41:03;;;;;;;0.20;0.20;;;;;;;;;;6094500;23;20564;-83
2022/11/23 12:43:29;;;;;;;0.40;0.40;;;;;;;;;;6070593;23;20028;-82
2022/11/23 12:46:01;;;;;;;0.20;0.20;;;;;;;;;;6070687;23;20059;-82
2022/11/23 12:48:47;;;;;;;0.40;0.40;;;;;;;;;;6070767;23;20022;-82
2022/11/23 12:51:32;;;;;;;0.30;0.30;;;;;;;;;;6070205;23;20022;-82
2022/11/23 12:54:04;;;;;;;0.30;0.30;;;;;;;;;;6070355;23;20237;-81
2022/11/23 12:56:30;;;;;;;0.20;0.20;;;;;;;;;;6094672;23;20257;-82
2022/11/23 12:58:58;;;;;;;0.32;0.32;;;;;;;;;;6070223;23;20014;-82
2022/11/23 13:01:24;;;;;;;0.20;0.20;;;;;;;;;;6070574;23;20022;-82
2022/11/23 13:03:50;;;;;;;0.28;0.28;;;;;;;;;;6070619;23;20106;-83
2022/11/23 13:06:42;;;;;;;0.35;0.35;;;;;;;;;;6094422;23;20022;-83
2022/11/23 13:09:30;;;;;;;0.20;0.20;;;;;;;;;;6074175;23;20440;-95
2022/11/23 13:12:14;;;;;;;0.20;0.20;;;;;;;;;;6076579;23;20026;-95
2022/11/23 13:15:04;;;;;;;0.30;0.30;;;;;;;;;;6081655;23;20022;-94
2022/11/23 13:17:51;;;;;;;0.28;0.28;;;;;;;;;;6063734;23;20018;-94
2022/11/23 13:20:27;;;;;;;0.20;0.20;;;;;;;;;;6076952;23;20014;-94
2022/11/23 13:22:55;;;;;;;0.13;0.13;;;;;;;;;;6078734;23;20066;-95
2022/11/23 13:25:24;;;;;;;0.30;0.30;;;;;;;;;;6104731;23;20018;-96
2022/11/23 13:27:50;;;;;;;0.30;0.30;;;;;;;;;;6082865;23;20072;-95
2022/11/23 13:30:29;;;;;;;0.20;0.20;;;;;;;;;;6099441;23;20062;-91
2022/11/23 13:33:03;;;;;;;0.30;0.30;;;;;;;;;;6071924;23;20436;-92
2022/11/23 13:35:29;;;;;;;0.30;0.30;;;;;;;;;;6070034;23;20037;-91
2022/11/23 13:37:55;;;;;;;0.30;0.30;;;;;;;;;;6071407;23;20011;-90
2022/11/23 13:40:22;;;;;;;0.30;0.30;;;;;;;;;;6071318;23;20049;-90
2022/11/23 13:42:48;;;;;;;0.30;0.30;;;;;;;;;;6072549;23;20033;-92
2022/11/23 13:45:21;;;;;;;0.20;0.20;;;;;;;;;;6072095;23;20018;-92
2022/11/23 13:58:35;;;;;;;0.30;0.30;;;;;;;;;;6126107;23;20025;-94
2022/11/23 14:01:02;;;;;;;0.32;0.32;;;;;;;;;;6077221;23;20108;-94
2022/11/23 14:03:49;;;;;;;0.30;0.30;;;;;;;;;;6109071;23;20033;-96
2022/11/23 14:06:35;;;;;;;0.20;0.20;;;;;;;;;;6129756;23;20017;-92
2022/11/23 14:09:04;;;;;;;0.20;0.20;;;;;;;;;;6079855;23;20045;-93
2022/11/23 14:11:36;;;;;;;0.25;0.25;;;;;;;;;;6078129;23;20018;-93
2022/11/23 14:14:03;;;;;;;0.20;0.20;;;;;;;;;;6078726;23;20021;-93
2022/11/23 14:16:47;;;;;;;0.30;0.30;;;;;;;;;;6078141;23;20018;-93
2022/11/23 14:19:30;;;;;;;0.10;0.10;;;;;;;;;;6102538;23;20044;-93
2022/11/23 14:22:20;;;;;;;0.20;0.20;;;;;;;;;;6078372;23;20118;-93
2022/11/23 14:24:52;;;;;;;0.20;0.20;;;;;;;;;;6078163;23;20018;-94
2022/11/23 14:27:21;;;;;;;0.20;0.20;;;;;;;;;;6079055;23;20028;-95
2022/11/23 14:30:03;;;;;;;0.30;0.30;;;;;;;;;;6079447;23;20014;-95
2022/11/23 14:32:39;;;;;;;0.30;0.30;;;;;;;;;;6080104;23;20428;-96
2022/11/23 14:35:09;;;;;;;0.20;0.20;;;;;;;;;;6079164;23;20021;-96
2022/11/23 14:37:35;;;;;;;0.13;0.13;;;;;;;;;;6078841;23;20093;-96
2022/11/23 14:40:01;;;;;;;0.22;0.22;;;;;;;;;;6080372;23;20040;-96
2022/11/23 14:42:29;;;;;;;0.20;0.20;;;;;;;;;;6079550;23;20018;-96
2022/11/23 14:44:57;;;;;;;0.32;0.32;;;;;;;;;;6078365;23;20049;-96
2022/11/23 14:47:27;;;;;;;0.30;0.30;;;;;;;;;;6078739;23;20025;-96
2022/11/23 14:50:11;;;;;;;0.30;0.30;;;;;;;;;;6078273;23;20025;-96
2022/11/23 14:52:37;;;;;;;0.30;0.30;;;;;;;;;;6078089;23;20014;-96
2022/11/23 14:55:05;;;;;;;0.22;0.22;;;;;;;;;;6078333;23;20018;-96
2022/11/23 14:57:39;;;;;;;0.35;0.35;;;;;;;;;;6079650;23;20013;-96
2022/11/23 15:00:05;;;;;;;0.40;0.40;;;;;;;;;;6078932;23;20029;-94
2022/11/23 15:02:36;;;;;;;0.30;0.30;;;;;;;;;;6080396;23;20094;-94
2022/11/23 15:05:07;;;;;;;0.20;0.20;;;;;;;;;;6078311;23;20435;-95
2022/11/23 15:07:41;;;;;;;0.22;0.22;;;;;;;;;;6081633;23;20025;-94
2022/11/23 15:10:16;;;;;;;0.10;0.10;;;;;;;;;;6088045;23;20022;-96
2022/11/23 15:12:43;;;;;;;0.20;0.20;;;;;;;;;;6086302;23;20014;-95
2022/11/23 15:15:21;;;;;;;0.38;0.38;;;;;;;;;;6111723;23;20017;-92